Caribbean Princess — ZCDG8 — position and weather

sailwx.info

Track history (hours):
 
Tides and Currents Weather Stations Pressure Air Temp Water Temp Dewpoint Dewpoint Depression Visibility Wind Speed Wind Dir Waves Ship Positions

Caribbean Princess

Operator: Princess Cruises

Last reported at 2020-Jan-24 00:12 UTC. Time now 2020-Jan-28 20:42 UTC.
Position N 25°24' W 079°44'.

Type: Passenger vessel. MMSI: 310423000.

Date/timePositionNaut miles runAvg speedWind from/ knotsBaromVisibWave heightAir tempDewpointWater temp
2020-Jan-24 00:12N 25°24' W 079°44'1319.6
2020-Jan-23 23:30N 25°37' W 079°48'2718.1
2020-Jan-23 22:00N 26°02' W 080°00'7 1.3
2020-Jan-23 16:28N 26°06' W 080°07'0 0.0
2020-Jan-23 15:28N 26°06' W 080°07'0 0.0
2020-Jan-23 13:58N 26°06' W 080°07'0 0.0
2020-Jan-23 12:28N 26°06' W 080°07'0 0.0
2020-Jan-23 11:00N 26°06' W 080°07'7 7.5
2020-Jan-23 10:00N 26°03' W 079°60'  
2020-Jan-15 23:22N 18°56' W 081°14'1618.3
2020-Jan-15 22:30N 19°10' W 081°22'9 3.4
2020-Jan-15 20:00N 19°18' W 081°24'0 0.1
2020-Jan-15 19:30N 19°18' W 081°24'0 0.0
2020-Jan-15 18:00N 19°18' W 081°24'0 0.0
2020-Jan-15 14:00N 19°18' W 081°24'0 0.0
2020-Jan-15 12:30N 19°18' W 081°24'5 4.6
2020-Jan-15 11:30N 19°20' W 081°28'36410.5
2020-Jan-14 00:46N 25°15' W 080°04'  
Track history (hours):
 
Tides and Currents Weather Stations Pressure Air Temp Water Temp Dewpoint Dewpoint Depression Visibility Wind Speed Wind Dir Waves Ship Positions

Caribbean Princess

Operator: Princess Cruises

Last reported at 2020-Jan-24 00:12 UTC. Time now 2020-Jan-28 20:42 UTC.
Position N 25°24' W 079°44'.

Type: Passenger vessel. MMSI: 310423000.

Date/timePositionNaut miles runAvg speedWind from/ knotsBaromVisibWave heightAir tempDewpointWater temp
2020-Jan-24 00:12N 25°24' W 079°44'1319.6
2020-Jan-23 23:30N 25°37' W 079°48'2718.1
2020-Jan-23 22:00N 26°02' W 080°00'7 1.3
2020-Jan-23 16:28N 26°06' W 080°07'0 0.0
2020-Jan-23 15:28N 26°06' W 080°07'0 0.0
2020-Jan-23 13:58N 26°06' W 080°07'0 0.0
2020-Jan-23 12:28N 26°06' W 080°07'0 0.0
2020-Jan-23 11:00N 26°06' W 080°07'7 7.5
2020-Jan-23 10:00N 26°03' W 079°60'  
2020-Jan-15 23:22N 18°56' W 081°14'1618.3
2020-Jan-15 22:30N 19°10' W 081°22'9 3.4
2020-Jan-15 20:00N 19°18' W 081°24'0 0.1
2020-Jan-15 19:30N 19°18' W 081°24'0 0.0
2020-Jan-15 18:00N 19°18' W 081°24'0 0.0
2020-Jan-15 14:00N 19°18' W 081°24'0 0.0
2020-Jan-15 12:30N 19°18' W 081°24'5 4.6
2020-Jan-15 11:30N 19°20' W 081°28'36410.5
2020-Jan-14 00:46N 25°15' W 080°04'  

Dump ship's entire track history